Time,TemperatureF,DewpointF,PressureIn,WindDirection,WindDirectionDegrees,WindSpeedMPH,WindSpeedGustMPH,Humidity,HourlyPrecipIn,Conditions,Clouds,dailyrainin,SoftwareType,DateUTC
2013-12-12 00:00:00,38.0,20.1,30.38,WNW,289,3.0,3.0,48,0.00,,---,0.00,VWS V14.01,2013-12-12 05:00:00,
2013-12-12 00:01:00,38.0,20.1,30.38,WNW,284,0.0,3.0,48,0.00,,---,0.00,VWS V14.01,2013-12-12 05:01:00,
2013-12-12 00:06:00,37.9,20.5,30.39,West,281,0.0,3.0,49,0.00,,---,0.00,VWS V14.01,2013-12-12 05:06:00,
2013-12-12 00:11:00,37.4,20.0,30.39,NW,310,4.0,5.0,49,0.00,,---,0.00,VWS V14.01,2013-12-12 05:11:00,
2013-12-12 00:16:00,37.4,20.5,30.39,WNW,295,0.0,2.0,50,0.00,,---,0.00,VWS V14.01,2013-12-12 05:16:00,
2013-12-12 00:21:00,37.3,19.9,30.39,NW,310,6.0,9.0,49,0.00,,---,0.00,VWS V14.01,2013-12-12 05:21:00,
2013-12-12 00:26:00,37.4,20.0,30.39,NNW,327,6.0,9.0,49,0.00,,---,0.00,VWS V14.01,2013-12-12 05:26:00,
2013-12-12 00:31:00,37.3,20.4,30.39,North,354,3.0,8.0,50,0.00,,---,0.00,VWS V14.01,2013-12-12 05:31:00,
2013-12-12 00:36:00,37.0,20.1,30.39,SSW,210,1.0,11.0,50,0.00,,---,0.00,VWS V14.01,2013-12-12 05:36:00,
2013-12-12 00:41:00,36.8,20.4,30.38,West,272,0.0,11.0,51,0.00,,---,0.00,VWS V14.01,2013-12-12 05:41:00,
2013-12-12 00:46:00,36.6,19.7,30.39,South,190,3.0,4.0,50,0.00,,---,0.00,VWS V14.01,2013-12-12 05:46:00,
2013-12-12 00:51:00,36.7,19.8,30.39,South,182,3.0,6.0,50,0.00,,---,0.00,VWS V14.01,2013-12-12 05:51:00,
2013-12-12 00:56:00,36.3,19.9,30.39,South,182,4.0,7.0,51,0.00,,---,0.00,VWS V14.01,2013-12-12 05:56:00,
2013-12-12 01:01:00,36.5,20.1,30.39,WNW,289,0.0,3.0,51,0.00,,---,0.00,VWS V14.01,2013-12-12 06:01:00,
2013-12-12 01:06:00,36.3,20.4,30.39,SE,142,1.0,3.0,52,0.00,,---,0.00,VWS V14.01,2013-12-12 06:06:00,
2013-12-12 01:11:00,35.7,20.7,30.39,NE,41,0.0,4.0,54,0.00,,---,0.00,VWS V14.01,2013-12-12 06:11:00,
2013-12-12 01:16:00,35.4,20.4,30.39,West,273,0.0,5.0,54,0.00,,---,0.00,VWS V14.01,2013-12-12 06:16:00,
2013-12-12 01:21:00,35.3,20.8,30.39,SW,219,0.0,6.0,55,0.00,,---,0.00,VWS V14.01,2013-12-12 06:21:00,
2013-12-12 01:26:00,34.8,21.1,30.40,SW,219,0.0,6.0,57,0.00,,---,0.00,VWS V14.01,2013-12-12 06:26:00,
2013-12-12 01:31:00,34.4,19.9,30.40,North,2,0.0,3.0,55,0.00,,---,0.00,VWS V14.01,2013-12-12 06:31:00,
2013-12-12 01:36:00,34.7,20.2,30.40,NW,310,0.0,8.0,55,0.00,,---,0.00,VWS V14.01,2013-12-12 06:36:00,
2013-12-12 01:41:00,34.9,20.4,30.40,West,281,4.0,8.0,55,0.00,,---,0.00,VWS V14.01,2013-12-12 06:41:00,
2013-12-12 01:46:00,35.1,20.1,30.40,NNW,345,3.0,4.0,54,0.00,,---,0.00,VWS V14.01,2013-12-12 06:46:00,
2013-12-12 01:51:00,35.0,20.0,30.40,West,268,0.0,4.0,54,0.00,,---,0.00,VWS V14.01,2013-12-12 06:51:00,
2013-12-12 01:56:00,34.8,20.7,30.40,NNW,330,0.0,4.0,56,0.00,,---,0.00,VWS V14.01,2013-12-12 06:56:00,
2013-12-12 02:01:00,34.4,19.9,30.40,West,269,3.0,4.0,55,0.00,,---,0.00,VWS V14.01,2013-12-12 07:01:00,
2013-12-12 02:06:00,34.2,20.1,30.41,NW,323,2.0,4.0,56,0.00,,---,0.00,VWS V14.01,2013-12-12 07:06:00,
2013-12-12 02:11:00,34.2,20.1,30.41,WNW,286,3.0,9.0,56,0.00,,---,0.00,VWS V14.01,2013-12-12 07:11:00,
2013-12-12 02:16:00,34.4,20.3,30.41,NNW,327,5.0,7.0,56,0.00,,---,0.00,VWS V14.01,2013-12-12 07:16:00,
2013-12-12 02:21:00,34.4,19.9,30.41,NNW,328,2.0,8.0,55,0.00,,---,0.00,VWS V14.01,2013-12-12 07:21:00,
2013-12-12 02:26:00,34.2,20.1,30.41,NW,305,1.0,8.0,56,0.00,,---,0.00,VWS V14.01,2013-12-12 07:26:00,
2013-12-12 02:31:00,34.0,20.0,30.41,West,277,1.0,5.0,56,0.00,,---,0.00,VWS V14.01,2013-12-12 07:31:00,
2013-12-12 02:36:00,33.9,19.9,30.41,West,281,4.0,5.0,56,0.00,,---,0.00,VWS V14.01,2013-12-12 07:36:00,
2013-12-12 02:41:00,33.8,19.8,30.41,WSW,246,3.0,5.0,56,0.00,,---,0.00,VWS V14.01,2013-12-12 07:41:00,
2013-12-12 02:46:00,33.6,19.6,30.41,WSW,237,1.0,2.0,56,0.00,,---,0.00,VWS V14.01,2013-12-12 07:46:00,
2013-12-12 02:51:00,33.4,19.8,30.41,NW,322,2.0,6.0,57,0.00,,---,0.00,VWS V14.01,2013-12-12 07:51:00,
2013-12-12 02:56:00,33.4,19.8,30.41,NW,308,3.0,7.0,57,0.00,,---,0.00,VWS V14.01,2013-12-12 07:56:00,
2013-12-12 03:01:00,33.5,19.9,30.41,NW,310,1.0,3.0,57,0.00,,---,0.00,VWS V14.01,2013-12-12 08:01:00,
2013-12-12 03:06:00,33.3,19.7,30.41,WNW,285,3.0,6.0,57,0.00,,---,0.00,VWS V14.01,2013-12-12 08:06:00,
2013-12-12 03:11:00,33.4,19.8,30.41,WNW,298,2.0,10.0,57,0.00,,---,0.00,VWS V14.01,2013-12-12 08:11:00,
2013-12-12 03:16:00,33.5,19.9,30.41,WNW,294,0.0,5.0,57,0.00,,---,0.00,VWS V14.01,2013-12-12 08:16:00,
2013-12-12 03:21:00,33.3,19.7,30.41,NNW,337,3.0,5.0,57,0.00,,---,0.00,VWS V14.01,2013-12-12 08:21:00,
2013-12-12 03:26:00,33.3,20.1,30.41,NNW,330,5.0,8.0,58,0.00,,---,0.00,VWS V14.01,2013-12-12 08:26:00,
2013-12-12 03:31:00,33.4,19.4,30.41,WNW,301,2.0,3.0,56,0.00,,---,0.00,VWS V14.01,2013-12-12 08:31:00,
2013-12-12 03:36:00,33.3,19.7,30.41,WNW,298,1.0,5.0,57,0.00,,---,0.00,VWS V14.01,2013-12-12 08:36:00,
2013-12-12 03:41:00,33.3,19.7,30.41,NNW,336,3.0,8.0,57,0.00,,---,0.00,VWS V14.01,2013-12-12 08:41:00,
2013-12-12 03:46:00,33.3,20.1,30.41,WNW,295,2.0,5.0,58,0.00,,---,0.00,VWS V14.01,2013-12-12 08:46:00,
2013-12-12 03:51:00,33.2,19.6,30.41,WNW,289,0.0,8.0,57,0.00,,---,0.00,VWS V14.01,2013-12-12 08:51:00,
2013-12-12 03:56:00,33.0,19.9,30.41,SW,235,2.0,8.0,58,0.00,,---,0.00,VWS V14.01,2013-12-12 08:56:00,
2013-12-12 04:01:00,32.9,19.8,30.41,NW,317,5.0,8.0,58,0.00,,---,0.00,VWS V14.01,2013-12-12 09:01:00,
2013-12-12 04:06:00,32.8,19.7,30.41,North,352,6.0,8.0,58,0.00,,---,0.00,VWS V14.01,2013-12-12 09:06:00,
2013-12-12 04:11:00,32.7,19.2,30.40,West,273,4.0,8.0,57,0.00,,---,0.00,VWS V14.01,2013-12-12 09:11:00,
2013-12-12 04:16:00,32.5,19.0,30.40,West,279,8.0,8.0,57,0.00,,---,0.00,VWS V14.01,2013-12-12 09:16:00,
2013-12-12 04:21:00,32.4,18.5,30.40,SSW,198,0.0,9.0,56,0.00,,---,0.00,VWS V14.01,2013-12-12 09:21:00,
2013-12-12 04:26:00,32.3,18.4,30.41,WSW,254,3.0,9.0,56,0.00,,---,0.00,VWS V14.01,2013-12-12 09:26:00,
2013-12-12 04:31:00,32.3,18.4,30.41,West,276,6.0,9.0,56,0.00,,---,0.00,VWS V14.01,2013-12-12 09:31:00,
2013-12-12 04:36:00,32.2,18.3,30.41,WSW,253,1.0,9.0,56,0.00,,---,0.00,VWS V14.01,2013-12-12 09:36:00,
2013-12-12 04:41:00,32.0,18.5,30.41,NW,319,4.0,9.0,57,0.00,,---,0.00,VWS V14.01,2013-12-12 09:41:00,
2013-12-12 04:46:00,31.9,18.4,30.41,WSW,252,1.0,5.0,57,0.00,,---,0.00,VWS V14.01,2013-12-12 09:46:00,
2013-12-12 04:51:00,32.0,18.5,30.41,SE,141,0.0,9.0,57,0.00,,---,0.00,VWS V14.01,2013-12-12 09:51:00,
2013-12-12 04:56:00,31.9,18.4,30.41,WNW,292,3.0,9.0,57,0.00,,---,0.00,VWS V14.01,2013-12-12 09:56:00,
2013-12-12 05:01:00,31.7,18.6,30.41,SW,232,2.0,4.0,58,0.00,,---,0.00,VWS V14.01,2013-12-12 10:01:00,
2013-12-12 05:06:00,31.3,18.2,30.41,SSW,202,2.0,4.0,58,0.00,,---,0.00,VWS V14.01,2013-12-12 10:06:00,
2013-12-12 05:11:00,31.2,19.3,30.41,SSW,208,0.0,4.0,61,0.00,,---,0.00,VWS V14.01,2013-12-12 10:11:00,
2013-12-12 05:16:00,30.5,18.3,30.42,South,188,0.0,1.0,60,0.00,,---,0.00,VWS V14.01,2013-12-12 10:16:00,
2013-12-12 05:21:00,30.5,18.3,30.41,WNW,302,3.0,4.0,60,0.00,,---,0.00,VWS V14.01,2013-12-12 10:21:00,
2013-12-12 05:26:00,30.6,18.4,30.41,NNW,333,3.0,4.0,60,0.00,,---,0.00,VWS V14.01,2013-12-12 10:26:00,
2013-12-12 05:31:00,30.7,18.5,30.41,North,360,3.0,6.0,60,0.00,,---,0.00,VWS V14.01,2013-12-12 10:31:00,
2013-12-12 05:36:00,30.6,18.8,30.42,NNW,329,3.0,7.0,61,0.00,,---,0.00,VWS V14.01,2013-12-12 10:36:00,
2013-12-12 05:41:00,30.9,18.7,30.42,NW,321,3.0,7.0,60,0.00,,---,0.00,VWS V14.01,2013-12-12 10:41:00,
2013-12-12 05:46:00,30.6,18.8,30.42,WNW,288,8.0,8.0,61,0.00,,---,0.00,VWS V14.01,2013-12-12 10:46:00,
2013-12-12 05:51:00,30.6,18.0,30.43,NNE,27,5.0,13.0,59,0.00,,---,0.00,VWS V14.01,2013-12-12 10:51:00,
2013-12-12 05:56:00,30.7,18.1,30.43,NW,308,4.0,13.0,59,0.00,,---,0.00,VWS V14.01,2013-12-12 10:56:00,
2013-12-12 06:01:00,30.5,17.9,30.44,WNW,293,5.0,14.0,59,0.00,,---,0.00,VWS V14.01,2013-12-12 11:01:00,
2013-12-12 06:06:00,30.4,17.8,30.44,NW,320,3.0,14.0,59,0.00,,---,0.00,VWS V14.01,2013-12-12 11:06:00,
2013-12-12 06:11:00,30.2,17.2,30.43,WNW,291,4.0,14.0,58,0.00,,---,0.00,VWS V14.01,2013-12-12 11:11:00,
2013-12-12 06:16:00,30.1,17.1,30.44,WNW,296,6.0,8.0,58,0.00,,---,0.00,VWS V14.01,2013-12-12 11:16:00,
2013-12-12 06:21:00,30.1,17.1,30.44,WNW,290,3.0,8.0,58,0.00,,---,0.00,VWS V14.01,2013-12-12 11:21:00,
2013-12-12 06:26:00,29.8,16.8,30.44,NW,306,2.0,8.0,58,0.00,,---,0.00,VWS V14.01,2013-12-12 11:26:00,
2013-12-12 06:31:00,29.7,17.1,30.44,NW,318,5.0,5.0,59,0.00,,---,0.00,VWS V14.01,2013-12-12 11:31:00,
2013-12-12 06:36:00,29.5,16.6,30.45,NW,322,2.0,7.0,58,0.00,,---,0.00,VWS V14.01,2013-12-12 11:36:00,
2013-12-12 06:40:00,29.4,16.5,30.45,NNW,327,1.0,7.0,58,0.00,,---,0.00,VWS V14.01,2013-12-12 11:40:00,
2013-12-12 06:45:00,29.3,16.8,30.46,North,5,1.0,1.0,59,0.00,,---,0.00,VWS V14.01,2013-12-12 11:45:00,
2013-12-12 06:50:00,29.2,16.7,30.46,WNW,289,2.0,5.0,59,0.00,,---,0.00,VWS V14.01,2013-12-12 11:50:00,
2013-12-12 06:55:00,29.0,17.6,30.46,North,5,2.0,6.0,62,0.00,,---,0.00,VWS V14.01,2013-12-12 11:55:00,
2013-12-12 07:00:00,28.6,16.9,30.46,North,1,0.0,0.0,61,0.00,,---,0.00,VWS V14.01,2013-12-12 12:00:00,
2013-12-12 07:05:00,28.3,16.2,30.46,ESE,110,1.0,5.0,60,0.00,,---,0.00,VWS V14.01,2013-12-12 12:05:00,
2013-12-12 07:10:00,28.2,16.5,30.47,NE,41,0.0,5.0,61,0.00,,---,0.00,VWS V14.01,2013-12-12 12:10:00,
2013-12-12 07:15:00,28.1,15.6,30.47,West,277,2.0,3.0,59,0.00,,---,0.00,VWS V14.01,2013-12-12 12:15:00,
2013-12-12 07:20:00,28.4,15.5,30.47,SE,142,1.0,4.0,58,0.00,,---,0.00,VWS V14.01,2013-12-12 12:20:00,
2013-12-12 07:25:00,28.4,15.9,30.48,South,173,3.0,5.0,59,0.00,,---,0.00,VWS V14.01,2013-12-12 12:25:00,
2013-12-12 07:30:00,28.4,15.5,30.48,North,353,5.0,7.0,58,0.00,,---,0.00,VWS V14.01,2013-12-12 12:30:00,
2013-12-12 07:35:00,28.5,15.2,30.47,ESE,120,0.0,7.0,57,0.00,,---,0.00,VWS V14.01,2013-12-12 12:35:00,
2013-12-12 07:40:00,28.5,15.2,30.48,NW,317,4.0,12.0,57,0.00,,---,0.00,VWS V14.01,2013-12-12 12:40:00,
2013-12-12 07:45:00,28.5,14.8,30.48,NW,316,5.0,7.0,56,0.00,,---,0.00,VWS V14.01,2013-12-12 12:45:00,
2013-12-12 07:50:00,28.4,14.7,30.48,NNE,13,6.0,10.0,56,0.00,,---,0.00,VWS V14.01,2013-12-12 12:50:00,
2013-12-12 07:55:00,28.4,14.3,30.49,WNW,288,7.0,20.0,55,0.00,,---,0.00,VWS V14.01,2013-12-12 12:55:00,
2013-12-12 08:00:00,28.4,14.7,30.49,NNE,25,1.0,10.0,56,0.00,,---,0.00,VWS V14.01,2013-12-12 13:00:00,
2013-12-12 08:05:00,28.4,14.7,30.49,North,354,3.0,10.0,56,0.00,,---,0.00,VWS V14.01,2013-12-12 13:05:00,
2013-12-12 08:10:00,28.5,14.4,30.49,NW,323,8.0,11.0,55,0.00,,---,0.00,VWS V14.01,2013-12-12 13:10:00,
2013-12-12 08:15:00,28.5,14.8,30.49,NW,318,1.0,6.0,56,0.00,,---,0.00,VWS V14.01,2013-12-12 13:15:00,
2013-12-12 08:20:00,28.6,14.9,30.49,West,270,3.0,7.0,56,0.00,,---,0.00,VWS V14.01,2013-12-12 13:20:00,
2013-12-12 08:25:00,28.6,14.9,30.50,WNW,303,7.0,18.0,56,0.00,,---,0.00,VWS V14.01,2013-12-12 13:25:00,
2013-12-12 08:30:00,28.7,14.6,30.49,North,2,1.0,5.0,55,0.00,,---,0.00,VWS V14.01,2013-12-12 13:30:00,
2013-12-12 08:35:00,28.8,15.1,30.50,NNW,331,6.0,13.0,56,0.00,,---,0.00,VWS V14.01,2013-12-12 13:35:00,
2013-12-12 08:40:00,28.7,14.6,30.50,NNW,338,7.0,14.0,55,0.00,,---,0.00,VWS V14.01,2013-12-12 13:40:00,
2013-12-12 08:45:00,28.6,13.6,30.50,NNW,345,12.0,15.0,53,0.00,,---,0.00,VWS V14.01,2013-12-12 13:45:00,
2013-12-12 08:50:00,28.6,14.1,30.50,NNW,329,6.0,15.0,54,0.00,,---,0.00,VWS V14.01,2013-12-12 13:50:00,
2013-12-12 08:55:00,28.5,13.1,30.50,NW,304,6.0,16.0,52,0.00,,---,0.00,VWS V14.01,2013-12-12 13:55:00,
2013-12-12 09:00:00,28.5,13.6,30.50,North,353,9.0,12.0,53,0.00,,---,0.00,VWS V14.01,2013-12-12 14:00:00,
2013-12-12 09:05:00,28.6,13.6,30.50,North,359,8.0,12.0,53,0.00,,---,0.00,VWS V14.01,2013-12-12 14:05:00,
2013-12-12 09:10:00,28.5,12.2,30.50,NW,322,8.0,15.0,50,0.00,,---,0.00,VWS V14.01,2013-12-12 14:10:00,
2013-12-12 09:15:00,28.6,12.8,30.51,NW,321,1.0,6.0,51,0.00,,---,0.00,VWS V14.01,2013-12-12 14:15:00,
2013-12-12 09:20:00,28.9,13.1,30.51,NNW,347,6.0,10.0,51,0.00,,---,0.00,VWS V14.01,2013-12-12 14:20:00,
2013-12-12 09:25:00,28.9,12.6,30.51,NNE,15,5.0,12.0,50,0.00,,---,0.00,VWS V14.01,2013-12-12 14:25:00,
2013-12-12 09:30:00,28.8,12.1,30.51,NNW,347,6.0,8.0,49,0.00,,---,0.00,VWS V14.01,2013-12-12 14:30:00,
2013-12-12 09:35:00,28.9,13.1,30.51,NW,325,8.0,13.0,51,0.00,,---,0.00,VWS V14.01,2013-12-12 14:35:00,
2013-12-12 09:40:00,28.9,13.1,30.51,NW,314,6.0,13.0,51,0.00,,---,0.00,VWS V14.01,2013-12-12 14:40:00,
2013-12-12 09:45:00,29.0,13.1,30.52,WNW,303,4.0,7.0,51,0.00,,---,0.00,VWS V14.01,2013-12-12 14:45:00,
2013-12-12 09:50:00,29.2,12.9,30.52,North,358,15.0,15.0,50,0.00,,---,0.00,VWS V14.01,2013-12-12 14:50:00,
2013-12-12 09:55:00,28.9,12.6,30.52,NNW,333,6.0,16.0,50,0.00,,---,0.00,VWS V14.01,2013-12-12 14:55:00,
2013-12-12 10:00:00,29.1,12.8,30.52,NNE,25,4.0,7.0,50,0.00,,---,0.00,VWS V14.01,2013-12-12 15:00:00,
2013-12-12 10:05:00,29.1,12.3,30.52,North,353,6.0,13.0,49,0.00,,---,0.00,VWS V14.01,2013-12-12 15:05:00,
2013-12-12 10:10:00,29.1,12.3,30.50,NNW,341,6.0,13.0,49,0.00,,---,0.00,VWS V14.01,2013-12-12 15:10:00,
2013-12-12 10:15:00,29.1,11.9,30.50,NW,309,5.0,13.0,48,0.00,,---,0.00,VWS V14.01,2013-12-12 15:15:00,
2013-12-12 10:20:00,29.4,12.1,30.51,WNW,300,9.0,13.0,48,0.00,,---,0.00,VWS V14.01,2013-12-12 15:20:00,
2013-12-12 10:25:00,29.4,11.7,30.51,NNW,332,3.0,13.0,47,0.00,,---,0.00,VWS V14.01,2013-12-12 15:25:00,
2013-12-12 10:30:00,29.7,11.9,30.52,North,351,6.0,10.0,47,0.00,,---,0.00,VWS V14.01,2013-12-12 15:30:00,
2013-12-12 10:35:00,29.9,12.1,30.52,WNW,300,5.0,13.0,47,0.00,,---,0.00,VWS V14.01,2013-12-12 15:35:00,
2013-12-12 10:40:00,30.1,11.8,30.51,NNE,17,5.0,15.0,46,0.00,,---,0.00,VWS V14.01,2013-12-12 15:40:00,
2013-12-12 10:45:00,30.5,13.6,30.51,WNW,295,4.0,5.0,49,0.00,,---,0.00,VWS V14.01,2013-12-12 15:45:00,
2013-12-12 10:50:00,30.7,10.9,30.51,NW,319,8.0,15.0,43,0.00,,---,0.00,VWS V14.01,2013-12-12 15:50:00,
2013-12-12 10:55:00,30.8,12.0,30.51,North,5,6.0,15.0,45,0.00,,---,0.00,VWS V14.01,2013-12-12 15:55:00,
2013-12-12 11:00:00,31.1,13.2,30.51,NW,309,2.0,3.0,47,0.00,,---,0.00,VWS V14.01,2013-12-12 16:00:00,
2013-12-12 11:05:00,31.5,13.1,30.51,WNW,283,2.0,9.0,46,0.00,,---,0.00,VWS V14.01,2013-12-12 16:05:00,
2013-12-12 11:10:00,31.7,11.8,30.51,West,265,3.0,9.0,43,0.00,,---,0.00,VWS V14.01,2013-12-12 16:10:00,
2013-12-12 11:15:00,32.0,12.6,30.51,WNW,293,2.0,7.0,44,0.00,,---,0.00,VWS V14.01,2013-12-12 16:15:00,
2013-12-12 11:20:00,32.0,11.0,30.50,NNW,345,5.0,14.0,41,0.00,,---,0.00,VWS V14.01,2013-12-12 16:20:00,
2013-12-12 11:25:00,31.9,12.0,30.50,NW,320,11.0,14.0,43,0.00,,---,0.00,VWS V14.01,2013-12-12 16:25:00,
2013-12-12 11:30:00,31.7,10.7,30.50,West,262,6.0,9.0,41,0.00,,---,0.00,VWS V14.01,2013-12-12 16:30:00,
2013-12-12 11:35:00,32.0,10.4,30.49,NNE,23,3.0,12.0,40,0.00,,---,0.00,VWS V14.01,2013-12-12 16:35:00,
2013-12-12 11:40:00,31.8,10.2,30.49,North,355,6.0,12.0,40,0.00,,---,0.00,VWS V14.01,2013-12-12 16:40:00,
2013-12-12 11:45:00,31.9,12.0,30.48,North,359,5.0,8.0,43,0.00,,---,0.00,VWS V14.01,2013-12-12 16:45:00,
2013-12-12 11:50:00,32.1,10.5,30.48,West,264,3.0,9.0,40,0.00,,---,0.00,VWS V14.01,2013-12-12 16:50:00,
2013-12-12 11:55:00,32.5,11.4,30.48,North,10,4.0,10.0,41,0.00,,---,0.00,VWS V14.01,2013-12-12 16:55:00,
2013-12-12 12:00:00,32.7,11.1,30.47,North,4,4.0,8.0,40,0.00,,---,0.00,VWS V14.01,2013-12-12 17:00:00,
2013-12-12 12:05:00,32.9,11.8,30.47,NW,314,1.0,10.0,41,0.00,,---,0.00,VWS V14.01,2013-12-12 17:05:00,
2013-12-12 12:10:00,33.4,12.2,30.47,SW,220,3.0,10.0,41,0.00,,---,0.00,VWS V14.01,2013-12-12 17:10:00,
2013-12-12 12:15:00,33.9,11.0,30.47,North,353,0.0,0.0,38,0.00,,---,0.00,VWS V14.01,2013-12-12 17:15:00,
2013-12-12 12:20:00,34.6,11.0,30.47,NNW,327,6.0,7.0,37,0.00,,---,0.00,VWS V14.01,2013-12-12 17:20:00,
2013-12-12 12:25:00,34.3,10.8,30.47,NNW,335,2.0,12.0,37,0.00,,---,0.00,VWS V14.01,2013-12-12 17:25:00,
2013-12-12 12:30:00,34.2,11.3,30.47,NNW,328,0.0,4.0,38,0.00,,---,0.00,VWS V14.01,2013-12-12 17:30:00,
2013-12-12 12:35:00,34.7,12.9,30.47,West,265,4.0,7.0,40,0.00,,---,0.00,VWS V14.01,2013-12-12 17:35:00,
2013-12-12 12:40:00,34.4,11.4,30.47,NNE,23,3.0,8.0,38,0.00,,---,0.00,VWS V14.01,2013-12-12 17:40:00,
2013-12-12 12:45:00,34.6,11.6,30.47,West,271,2.0,7.0,38,0.00,,---,0.00,VWS V14.01,2013-12-12 17:45:00,
2013-12-12 12:50:00,34.8,11.2,30.47,WNW,295,3.0,7.0,37,0.00,,---,0.00,VWS V14.01,2013-12-12 17:50:00,
2013-12-12 12:55:00,34.6,11.6,30.46,NW,304,6.0,7.0,38,0.00,,---,0.00,VWS V14.01,2013-12-12 17:55:00,
2013-12-12 13:00:00,34.6,11.0,30.46,North,352,7.0,12.0,37,0.00,,---,0.00,VWS V14.01,2013-12-12 18:00:00,
2013-12-12 13:05:00,34.5,10.3,30.46,North,354,6.0,14.0,36,0.00,,---,0.00,VWS V14.01,2013-12-12 18:05:00,
2013-12-12 13:10:00,34.6,11.6,30.46,North,350,4.0,14.0,38,0.00,,---,0.00,VWS V14.01,2013-12-12 18:10:00,
2013-12-12 13:15:00,34.7,11.7,30.46,North,2,5.0,5.0,38,0.00,,---,0.00,VWS V14.01,2013-12-12 18:15:00,
2013-12-12 13:20:00,35.2,12.1,30.46,NNW,341,5.0,8.0,38,0.00,,---,0.00,VWS V14.01,2013-12-12 18:20:00,
2013-12-12 13:25:00,35.3,11.0,30.46,WNW,298,0.0,9.0,36,0.00,,---,0.00,VWS V14.01,2013-12-12 18:25:00,
2013-12-12 13:30:00,35.6,11.3,30.46,NNW,328,2.0,3.0,36,0.00,,---,0.00,VWS V14.01,2013-12-12 18:30:00,
2013-12-12 13:35:00,35.9,12.2,30.46,NNW,337,3.0,6.0,37,0.00,,---,0.00,VWS V14.01,2013-12-12 18:35:00,
2013-12-12 13:40:00,35.9,11.6,30.45,West,275,3.0,7.0,36,0.00,,---,0.00,VWS V14.01,2013-12-12 18:40:00,
2013-12-12 13:45:00,36.0,10.4,30.45,NNW,346,4.0,5.0,34,0.00,,---,0.00,VWS V14.01,2013-12-12 18:45:00,
2013-12-12 13:50:00,35.9,10.9,30.45,West,279,2.0,7.0,35,0.00,,---,0.00,VWS V14.01,2013-12-12 18:50:00,
2013-12-12 13:55:00,35.6,10.0,30.44,North,10,4.0,13.0,34,0.00,,---,0.00,VWS V14.01,2013-12-12 18:55:00,
2013-12-12 14:00:00,35.5,9.9,30.44,NW,312,8.0,10.0,34,0.00,,---,0.00,VWS V14.01,2013-12-12 19:00:00,
2013-12-12 14:05:00,35.6,10.0,30.44,NW,308,6.0,11.0,34,0.00,,---,0.00,VWS V14.01,2013-12-12 19:05:00,
2013-12-12 14:10:00,35.8,10.8,30.44,WNW,282,6.0,11.0,35,0.00,,---,0.00,VWS V14.01,2013-12-12 19:10:00,
2013-12-12 14:15:00,36.1,10.5,30.44,West,267,1.0,4.0,34,0.00,,---,0.00,VWS V14.01,2013-12-12 19:15:00,
2013-12-12 14:20:00,36.2,11.8,30.44,NW,304,4.0,9.0,36,0.00,,---,0.00,VWS V14.01,2013-12-12 19:20:00,
2013-12-12 14:25:00,36.3,10.0,30.44,NNW,327,7.0,9.0,33,0.00,,---,0.00,VWS V14.01,2013-12-12 19:25:00,
2013-12-12 14:30:00,36.0,9.7,30.44,North,350,5.0,8.0,33,0.00,,---,0.00,VWS V14.01,2013-12-12 19:30:00,
2013-12-12 14:35:00,35.9,9.6,30.44,WNW,293,0.0,8.0,33,0.00,,---,0.00,VWS V14.01,2013-12-12 19:35:00,
2013-12-12 14:40:00,36.1,10.5,30.44,NW,317,6.0,8.0,34,0.00,,---,0.00,VWS V14.01,2013-12-12 19:40:00,
2013-12-12 14:45:00,36.1,9.8,30.44,West,279,3.0,5.0,33,0.00,,---,0.00,VWS V14.01,2013-12-12 19:45:00,
2013-12-12 14:50:00,36.2,9.9,30.44,West,261,5.0,13.0,33,0.00,,---,0.00,VWS V14.01,2013-12-12 19:50:00,
2013-12-12 14:55:00,36.2,9.2,30.44,WNW,298,5.0,13.0,32,0.00,,---,0.00,VWS V14.01,2013-12-12 19:55:00,
2013-12-12 15:00:00,36.3,9.3,30.44,West,265,4.0,9.0,32,0.00,,---,0.00,VWS V14.01,2013-12-12 20:00:00,
2013-12-12 15:05:00,36.4,10.7,30.43,WNW,302,4.0,11.0,34,0.00,,---,0.00,VWS V14.01,2013-12-12 20:05:00,
2013-12-12 15:10:00,36.5,8.8,30.43,West,262,7.0,11.0,31,0.00,,---,0.00,VWS V14.01,2013-12-12 20:10:00,
2013-12-12 15:15:00,36.4,8.7,30.43,SSW,212,6.0,8.0,31,0.00,,---,0.00,VWS V14.01,2013-12-12 20:15:00,
2013-12-12 15:20:00,36.5,8.0,30.43,West,279,2.0,8.0,30,0.00,,---,0.00,VWS V14.01,2013-12-12 20:20:00,
2013-12-12 15:25:00,36.6,8.1,30.43,West,279,1.0,8.0,30,0.00,,---,0.00,VWS V14.01,2013-12-12 20:25:00,
2013-12-12 15:30:00,36.4,7.9,30.43,WNW,282,6.0,6.0,30,0.00,,---,0.00,VWS V14.01,2013-12-12 20:30:00,
2013-12-12 15:35:00,36.1,8.4,30.44,West,281,6.0,10.0,31,0.00,,---,0.00,VWS V14.01,2013-12-12 20:35:00,
2013-12-12 15:40:00,36.1,8.4,30.44,NNW,332,6.0,10.0,31,0.00,,---,0.00,VWS V14.01,2013-12-12 20:40:00,
2013-12-12 15:45:00,36.1,7.7,30.44,WNW,282,7.0,9.0,30,0.00,,---,0.00,VWS V14.01,2013-12-12 20:45:00,
2013-12-12 15:50:00,36.0,7.6,30.45,West,276,5.0,9.0,30,0.00,,---,0.00,VWS V14.01,2013-12-12 20:50:00,
2013-12-12 15:55:00,35.7,7.3,30.45,NW,306,8.0,12.0,30,0.00,,---,0.00,VWS V14.01,2013-12-12 20:55:00,
2013-12-12 16:00:00,35.8,7.4,30.45,NW,310,3.0,4.0,30,0.00,,---,0.00,VWS V14.01,2013-12-12 21:00:00,
2013-12-12 16:05:00,35.8,6.7,30.45,WNW,298,2.0,10.0,29,0.00,,---,0.00,VWS V14.01,2013-12-12 21:05:00,
2013-12-12 16:10:00,35.7,7.3,30.46,WNW,289,7.0,11.0,30,0.00,,---,0.00,VWS V14.01,2013-12-12 21:10:00,
2013-12-12 16:15:00,35.6,7.2,30.46,NW,304,7.0,7.0,30,0.00,,---,0.00,VWS V14.01,2013-12-12 21:15:00,
2013-12-12 16:20:00,35.6,8.0,30.46,NNW,347,3.0,9.0,31,0.00,,---,0.00,VWS V14.01,2013-12-12 21:20:00,
2013-12-12 16:25:00,35.4,7.8,30.46,NW,306,7.0,9.0,31,0.00,,---,0.00,VWS V14.01,2013-12-12 21:25:00,
2013-12-12 16:30:00,35.2,7.6,30.45,NW,306,3.0,5.0,31,0.00,,---,0.00,VWS V14.01,2013-12-12 21:30:00,
2013-12-12 16:35:00,35.0,8.1,30.45,WNW,293,4.0,9.0,32,0.00,,---,0.00,VWS V14.01,2013-12-12 21:35:00,
2013-12-12 16:40:00,34.8,8.0,30.45,WNW,302,6.0,12.0,32,0.00,,---,0.00,VWS V14.01,2013-12-12 21:40:00,
2013-12-12 16:45:00,34.6,8.5,30.46,NW,304,3.0,5.0,33,0.00,,---,0.00,VWS V14.01,2013-12-12 21:45:00,
2013-12-12 16:50:00,34.6,7.8,30.46,NNW,340,4.0,9.0,32,0.00,,---,0.00,VWS V14.01,2013-12-12 21:50:00,
2013-12-12 16:55:00,34.4,8.3,30.46,NW,314,2.0,10.0,33,0.00,,---,0.00,VWS V14.01,2013-12-12 21:55:00,
2013-12-12 17:00:00,34.2,8.1,30.46,WNW,302,6.0,10.0,33,0.00,,---,0.00,VWS V14.01,2013-12-12 22:00:00,
2013-12-12 17:05:00,34.3,8.2,30.46,NW,313,3.0,10.0,33,0.00,,---,0.00,VWS V14.01,2013-12-12 22:05:00,
2013-12-12 17:10:00,34.1,8.7,30.46,NW,322,3.0,10.0,34,0.00,,---,0.00,VWS V14.01,2013-12-12 22:10:00,
2013-12-12 17:15:00,33.9,8.5,30.46,NW,322,3.0,3.0,34,0.00,,---,0.00,VWS V14.01,2013-12-12 22:15:00,
2013-12-12 17:20:00,33.8,8.4,30.46,NW,316,7.0,10.0,34,0.00,,---,0.00,VWS V14.01,2013-12-12 22:20:00,
2013-12-12 17:25:00,33.7,8.3,30.46,NW,312,2.0,10.0,34,0.00,,---,0.00,VWS V14.01,2013-12-12 22:25:00,
2013-12-12 17:30:00,33.7,8.3,30.46,WNW,283,2.0,3.0,34,0.00,,---,0.00,VWS V14.01,2013-12-12 22:30:00,
2013-12-12 17:35:00,33.4,9.3,30.47,WNW,283,4.0,5.0,36,0.00,,---,0.00,VWS V14.01,2013-12-12 22:35:00,
2013-12-12 17:40:00,33.3,8.6,30.46,NW,304,5.0,6.0,35,0.00,,---,0.00,VWS V14.01,2013-12-12 22:40:00,
2013-12-12 17:45:00,33.2,8.5,30.47,NNW,329,3.0,3.0,35,0.00,,---,0.00,VWS V14.01,2013-12-12 22:45:00,
2013-12-12 17:50:00,33.1,8.4,30.47,NW,307,1.0,4.0,35,0.00,,---,0.00,VWS V14.01,2013-12-12 22:50:00,
2013-12-12 17:55:00,33.0,8.4,30.47,West,267,2.0,5.0,35,0.00,,---,0.00,VWS V14.01,2013-12-12 22:55:00,
2013-12-12 18:00:00,32.9,8.3,30.47,NNW,331,0.0,0.0,35,0.00,,---,0.00,VWS V14.01,2013-12-12 23:00:00,
2013-12-12 18:05:00,32.6,9.8,30.47,WNW,285,4.0,4.0,38,0.00,,---,0.00,VWS V14.01,2013-12-12 23:05:00,
2013-12-12 18:10:00,32.3,8.4,30.47,WNW,286,1.0,6.0,36,0.00,,---,0.00,VWS V14.01,2013-12-12 23:10:00,
2013-12-12 18:15:00,32.3,8.4,30.47,WNW,286,1.0,1.0,36,0.00,,---,0.00,VWS V14.01,2013-12-12 23:15:00,
2013-12-12 18:20:00,31.8,9.7,30.47,WNW,286,0.0,2.0,39,0.00,,---,0.00,VWS V14.01,2013-12-12 23:20:00,
2013-12-12 18:25:00,31.3,8.6,30.47,WNW,286,0.0,2.0,38,0.00,,---,0.00,VWS V14.01,2013-12-12 23:25:00,
2013-12-12 18:30:00,31.1,9.6,30.47,NW,317,2.0,3.0,40,0.00,,---,0.00,VWS V14.01,2013-12-12 23:30:00,
2013-12-12 18:35:00,30.8,9.3,30.47,WSW,253,0.0,3.0,40,0.00,,---,0.00,VWS V14.01,2013-12-12 23:35:00,
2013-12-12 18:40:00,30.2,13.8,30.47,West,266,0.0,3.0,50,0.00,,---,0.00,VWS V14.01,2013-12-12 23:40:00,
2013-12-12 18:45:00,29.6,13.7,30.47,West,266,0.0,0.0,51,0.00,,---,0.00,VWS V14.01,2013-12-12 23:45:00,
2013-12-12 18:50:00,28.9,14.8,30.47,West,266,0.0,0.0,55,0.00,,---,0.00,VWS V14.01,2013-12-12 23:50:00,
2013-12-12 18:55:00,28.3,14.6,30.47,West,266,0.0,2.0,56,0.00,,---,0.00,VWS V14.01,2013-12-12 23:55:00,
2013-12-12 19:00:00,27.8,13.3,30.47,West,266,0.0,0.0,54,0.00,,---,0.00,VWS V14.01,2013-12-13 00:00:00,
2013-12-12 19:05:00,27.5,15.4,30.47,West,266,0.0,1.0,60,0.00,,---,0.00,VWS V14.01,2013-12-13 00:05:00,
2013-12-12 19:10:00,27.1,13.5,30.47,West,266,0.0,1.0,56,0.00,,---,0.00,VWS V14.01,2013-12-13 00:10:00,
2013-12-12 19:15:00,26.9,16.0,30.47,West,266,0.0,0.0,63,0.00,,---,0.00,VWS V14.01,2013-12-13 00:15:00,
2013-12-12 19:20:00,26.6,14.6,30.47,West,259,3.0,4.0,60,0.00,,---,0.00,VWS V14.01,2013-12-13 00:20:00,
2013-12-12 19:25:00,27.2,11.5,30.47,NW,313,1.0,4.0,51,0.00,,---,0.00,VWS V14.01,2013-12-13 00:25:00,
2013-12-12 19:30:00,27.4,13.8,30.47,NW,304,0.0,0.0,56,0.00,,---,0.00,VWS V14.01,2013-12-13 00:30:00,
2013-12-12 19:35:00,27.6,11.4,30.47,West,259,2.0,5.0,50,0.00,,---,0.00,VWS V14.01,2013-12-13 00:35:00,
2013-12-12 19:40:00,28.1,16.0,30.47,West,266,2.0,5.0,60,0.00,,---,0.00,VWS V14.01,2013-12-13 00:40:00,
2013-12-12 19:45:00,28.0,13.9,30.47,NW,304,1.0,1.0,55,0.00,,---,0.00,VWS V14.01,2013-12-13 00:45:00,
2013-12-12 19:50:00,28.4,11.2,30.46,WNW,298,2.0,3.0,48,0.00,,---,0.00,VWS V14.01,2013-12-13 00:50:00,
2013-12-12 19:55:00,29.0,10.8,30.46,WNW,303,3.0,5.0,46,0.00,,---,0.00,VWS V14.01,2013-12-13 00:55:00,
2013-12-12 20:00:00,29.2,11.0,30.46,WNW,293,0.0,0.0,46,0.00,,---,0.00,VWS V14.01,2013-12-13 01:00:00,
2013-12-12 20:05:00,29.2,14.6,30.46,West,275,0.0,4.0,54,0.00,,---,0.00,VWS V14.01,2013-12-13 01:05:00,
2013-12-12 20:10:00,29.1,10.4,30.46,West,277,0.0,4.0,45,0.00,,---,0.00,VWS V14.01,2013-12-13 01:10:00,
2013-12-12 20:15:00,29.2,10.5,30.47,West,277,0.0,0.0,45,0.00,,---,0.00,VWS V14.01,2013-12-13 01:15:00,
2013-12-12 20:20:00,29.4,9.7,30.47,WSW,254,0.0,5.0,43,0.00,,---,0.00,VWS V14.01,2013-12-13 01:20:00,
2013-12-12 20:25:00,29.6,9.9,30.47,WSW,243,0.0,5.0,43,0.00,,---,0.00,VWS V14.01,2013-12-13 01:25:00,
2013-12-12 20:30:00,29.5,10.8,30.47,SE,129,2.0,3.0,45,0.00,,---,0.00,VWS V14.01,2013-12-13 01:30:00,
2013-12-12 20:35:00,28.9,11.2,30.47,SE,146,0.0,3.0,47,0.00,,---,0.00,VWS V14.01,2013-12-13 01:35:00,
2013-12-12 20:40:00,28.5,10.9,30.47,SE,146,0.0,3.0,47,0.00,,---,0.00,VWS V14.01,2013-12-13 01:40:00,
2013-12-12 20:45:00,28.1,10.0,30.46,South,182,0.0,0.0,46,0.00,,---,0.00,VWS V14.01,2013-12-13 01:45:00,
2013-12-12 20:50:00,27.9,9.8,30.46,South,182,0.0,2.0,46,0.00,,---,0.00,VWS V14.01,2013-12-13 01:50:00,
2013-12-12 20:55:00,27.7,10.1,30.46,South,182,0.0,2.0,47,0.00,,---,0.00,VWS V14.01,2013-12-13 01:55:00,
2013-12-12 21:00:00,27.5,11.3,30.46,South,182,0.0,0.0,50,0.00,,---,0.00,VWS V14.01,2013-12-13 02:00:00,
2013-12-12 21:05:00,27.1,10.9,30.46,SSE,150,0.0,1.0,50,0.00,,---,0.00,VWS V14.01,2013-12-13 02:05:00,
2013-12-12 21:10:00,26.9,10.3,30.45,SSE,150,0.0,1.0,49,0.00,,---,0.00,VWS V14.01,2013-12-13 02:10:00,
2013-12-12 21:15:00,26.9,10.8,30.45,SSE,155,0.0,0.0,50,0.00,,---,0.00,VWS V14.01,2013-12-13 02:15:00,
2013-12-12 21:20:00,26.8,10.7,30.45,SSE,155,0.0,1.0,50,0.00,,---,0.00,VWS V14.01,2013-12-13 02:20:00,
2013-12-12 21:25:00,26.6,10.9,30.45,SSE,155,0.0,1.0,51,0.00,,---,0.00,VWS V14.01,2013-12-13 02:25:00,
2013-12-12 21:30:00,26.2,12.2,30.45,SSE,155,0.0,0.0,55,0.00,,---,0.00,VWS V14.01,2013-12-13 02:30:00,
2013-12-12 21:35:00,25.9,10.7,30.45,SSE,155,0.0,0.0,52,0.00,,---,0.00,VWS V14.01,2013-12-13 02:35:00,
2013-12-12 21:40:00,25.7,11.8,30.45,SSE,155,0.0,2.0,55,0.00,,---,0.00,VWS V14.01,2013-12-13 02:40:00,
2013-12-12 21:45:00,25.5,11.2,30.45,SSE,155,0.0,0.0,54,0.00,,---,0.00,VWS V14.01,2013-12-13 02:45:00,
2013-12-12 21:50:00,25.3,12.6,30.45,SSE,155,0.0,0.0,58,0.00,,---,0.00,VWS V14.01,2013-12-13 02:50:00,
2013-12-12 21:55:00,25.1,15.4,30.44,SSE,155,0.0,0.0,66,0.00,,---,0.00,VWS V14.01,2013-12-13 02:55:00,
2013-12-12 22:00:00,24.7,16.0,30.45,SSE,155,0.0,0.0,69,0.00,,---,0.00,VWS V14.01,2013-12-13 03:00:00,
2013-12-12 22:05:00,24.2,14.8,30.45,SSE,155,0.0,0.0,67,0.00,,---,0.00,VWS V14.01,2013-12-13 03:05:00,
2013-12-12 22:10:00,24.0,14.6,30.45,SSE,155,0.0,0.0,67,0.00,,---,0.00,VWS V14.01,2013-12-13 03:10:00,
2013-12-12 22:15:00,24.2,15.2,30.45,SSE,155,0.0,0.0,68,0.00,,---,0.00,VWS V14.01,2013-12-13 03:15:00,
2013-12-12 22:20:00,24.1,16.1,30.45,SSE,155,0.0,0.0,71,0.00,,---,0.00,VWS V14.01,2013-12-13 03:20:00,
2013-12-12 22:25:00,23.8,14.8,30.45,SSE,155,0.0,0.0,68,0.00,,---,0.00,VWS V14.01,2013-12-13 03:25:00,
2013-12-12 22:30:00,23.5,15.2,30.45,SSE,155,0.0,0.0,70,0.00,,---,0.00,VWS V14.01,2013-12-13 03:30:00,
2013-12-12 22:35:00,23.4,12.3,30.45,SW,220,0.0,3.0,62,0.00,,---,0.00,VWS V14.01,2013-12-13 03:35:00,
2013-12-12 22:40:00,23.4,15.7,30.44,SW,220,0.0,3.0,72,0.00,,---,0.00,VWS V14.01,2013-12-13 03:40:00,
2013-12-12 22:45:00,23.1,15.8,30.44,SW,220,0.0,0.0,73,0.00,,---,0.00,VWS V14.01,2013-12-13 03:45:00,
2013-12-12 22:50:00,23.0,16.0,30.44,SW,220,0.0,0.0,74,0.00,,---,0.00,VWS V14.01,2013-12-13 03:50:00,
2013-12-12 22:55:00,22.8,15.8,30.44,SW,220,0.0,1.0,74,0.00,,---,0.00,VWS V14.01,2013-12-13 03:55:00,
2013-12-12 23:00:00,22.7,14.7,30.43,SW,220,0.0,0.0,71,0.00,,---,0.00,VWS V14.01,2013-12-13 04:00:00,
2013-12-12 23:05:00,22.6,15.9,30.43,SW,220,0.0,0.0,75,0.00,,---,0.00,VWS V14.01,2013-12-13 04:05:00,
2013-12-12 23:10:00,22.5,15.2,30.43,SW,220,0.0,0.0,73,0.00,,---,0.00,VWS V14.01,2013-12-13 04:10:00,
2013-12-12 23:15:00,22.3,15.6,30.43,SW,220,0.0,0.0,75,0.00,,---,0.00,VWS V14.01,2013-12-13 04:15:00,
2013-12-12 23:20:00,22.2,15.2,30.43,SW,220,0.0,0.0,74,0.00,,---,0.00,VWS V14.01,2013-12-13 04:20:00,
2013-12-12 23:25:00,22.1,15.1,30.43,SW,220,0.0,0.0,74,0.00,,---,0.00,VWS V14.01,2013-12-13 04:25:00,
2013-12-12 23:30:00,22.0,15.3,30.43,SW,220,0.0,0.0,75,0.00,,---,0.00,VWS V14.01,2013-12-13 04:30:00,
2013-12-12 23:35:00,21.8,14.5,30.43,SW,220,0.0,0.0,73,0.00,,---,0.00,VWS V14.01,2013-12-13 04:35:00,
2013-12-12 23:40:00,21.8,14.5,30.43,SW,220,0.0,0.0,73,0.00,,---,0.00,VWS V14.01,2013-12-13 04:40:00,
2013-12-12 23:45:00,21.7,14.7,30.43,SW,220,0.0,0.0,74,0.00,,---,0.00,VWS V14.01,2013-12-13 04:45:00,
2013-12-12 23:50:00,21.7,15.0,30.43,SW,220,0.0,0.0,75,0.00,,---,0.00,VWS V14.01,2013-12-13 04:50:00,
2013-12-12 23:55:00,21.7,14.1,30.43,SW,220,0.0,0.0,72,0.00,,---,0.00,VWS V14.01,2013-12-13 04:55:00,